NCAR-RAP Real-Time Weather Data

Output produced by METARs form (12 August 2020  18:42 UTC)
found at http://weather.rap.ucar.edu/surface/
 
KLWS 121756Z 00000KT 10SM FEW060 BKN080 OVC095 22/03 A2996 RMK AO2 SLP133 T02170033 10217 20194 53021
KLWS 121656Z 30003KT 10SM FEW120 21/04 A2993 RMK AO2 SLP124 T02110039
KLWS 121556Z 28007KT 10SM CLR 21/04 A2991 RMK AO2 SLP117 T02110039
KLWS 121456Z 31007KT 10SM CLR 20/05 A2989 RMK AO2 SLP111 T02000050 53018
KLWS 121356Z 00000KT 10SM CLR 21/04 A2987 RMK AO2 SLP102 T02060039
KLWS 121256Z AUTO 31005KT 10SM CLR 20/03 A2985 RMK AO2 SLP097 T02000033 TSNO
KLWS 121156Z AUTO 28007KT 10SM CLR 21/02 A2984 RMK AO2 SLP092 T02060022 10267 20206 53014 TSNO
KLWS 121056Z AUTO 28005KT 10SM CLR 21/01 A2982 RMK AO2 SLP084 T02110011 TSNO
KLWS 120956Z AUTO 29006KT 10SM CLR 22/02 A2980 RMK AO2 SLP078 T02220017 TSNO
KLWS 120856Z AUTO 23004KT 10SM CLR 23/01 A2979 RMK AO2 SLP075 T02330006 53018
KLWS 120756Z AUTO 27006KT 10SM CLR 24/M01 A2977 RMK AO2 SLP067 T02391011 403500156
KLWS 120656Z AUTO 22005KT 10SM CLR 24/M04 A2976 RMK AO2 SLP063 T02441044
KLWS 120556Z AUTO 26012KT 10SM CLR 27/M04 A2974 RMK AO2 WSHFT 0541 SLP055 T02721039 10328 20250 51014
KLWS 120456Z 27005KT 10SM CLR 28/M01 A2973 RMK AO2 SLP053 T02781011
KLWS 120356Z 24003KT 10SM CLR 28/M01 A2972 RMK AO2 SLP053 T02781006
KLWS 120256Z 27005KT 10SM CLR 29/00 A2969 RMK AO2 SLP044 T02890000 55003
KLWS 120156Z 30010KT 10SM CLR 31/M01 A2968 RMK AO2 SLP039 T03111006
KLWS 120056Z 30011KT 10SM CLR 32/01 A2969 RMK AO2 SLP041 T03220011
KLWS 112356Z 32015G23KT 10SM CLR 32/01 A2970 RMK AO2 SLP048 T03170011 10350 20278 56020